Time;durP1;ratioP1;P1;durP2;ratioP2;P2;SDS_P1;SDS_P2;PMS_P1;PMS_P2;Temp;Humidity;BMP_temperature;BMP_pressure;BME280_temperature;BME280_humidity;BME280_pressure;Samples;Min_cycle;Max_cycle;Signal;HPM_P1;HPM_P2
2023/11/09 00:01:54;;;;;;;18.40;9.40;;;;;;;5.09;100.00;100221.98;223273;1265;140643;-91
2023/11/09 00:07:48;;;;;;;18.10;8.70;;;;;;;5.06;100.00;100220.25;223773;1265;138527;-88
2023/11/09 00:13:50;;;;;;;19.00;8.70;;;;;;;5.02;100.00;100218.27;223946;1265;138838;-90
2023/11/09 00:31:54;;;;;;;18.40;9.70;;;;;;;4.88;100.00;100214.89;223443;1265;139619;-90
2023/11/09 00:37:57;;;;;;;18.40;9.30;;;;;;;4.82;100.00;100218.60;224001;1265;138784;-89
2023/11/09 00:43:57;;;;;;;20.20;8.80;;;;;;;4.79;100.00;100218.66;224174;1264;138951;-90
2023/11/09 00:49:59;;;;;;;16.90;8.20;;;;;;;4.77;100.00;100216.49;223950;1265;139415;-89
2023/11/09 00:56:00;;;;;;;17.60;9.30;;;;;;;4.73;100.00;100207.27;223923;1265;139196;-90
2023/11/09 01:02:02;;;;;;;15.70;8.20;;;;;;;4.71;100.00;100202.76;223300;1265;139517;-90
2023/11/09 01:13:56;;;;;;;;;;;;;;;;;;;;;
2023/11/09 01:26:08;;;;;;;15.30;8.90;;;;;;;4.62;100.00;100201.08;224123;1265;138770;-89
2023/11/09 01:38:10;;;;;;;19.10;9.40;;;;;;;4.54;100.00;100193.04;223336;1265;140215;-89
2023/11/09 01:44:14;;;;;;;20.10;10.10;;;;;;;4.51;100.00;100190.63;223860;1265;138679;-91
2023/11/09 01:50:15;;;;;;;18.00;10.00;;;;;;;4.51;100.00;100183.05;223518;1264;140294;-89
2023/11/09 01:56:17;;;;;;;19.00;9.80;;;;;;;4.48;100.00;100185.77;223998;1264;138631;-92
2023/11/09 02:02:17;;;;;;;21.10;8.80;;;;;;;4.45;100.00;100179.70;223332;1265;139499;-89
2023/11/09 02:08:19;;;;;;;21.00;10.40;;;;;;;4.44;100.00;100179.10;223337;1265;140124;-91
2023/11/09 02:14:20;;;;;;;18.30;8.40;;;;;;;4.42;100.00;100181.48;224049;1264;139312;-89
2023/11/09 02:20:21;;;;;;;18.80;8.80;;;;;;;4.41;100.00;100178.33;223461;1265;139922;-90
2023/11/09 02:32:25;;;;;;;17.00;8.70;;;;;;;4.37;100.00;100165.03;223726;1264;139446;-88
2023/11/09 02:38:26;;;;;;;18.00;8.40;;;;;;;4.36;100.00;100156.28;223862;1265;139983;-90
2023/11/09 02:44:27;;;;;;;17.90;8.30;;;;;;;4.33;100.00;100148.78;223848;1265;138667;-89
2023/11/09 02:50:29;;;;;;;16.10;8.30;;;;;;;4.25;100.00;100137.33;223293;1264;140306;-90
2023/11/09 02:56:30;;;;;;;17.60;8.80;;;;;;;4.20;100.00;100120.45;223874;1265;139334;-89
2023/11/09 03:02:31;;;;;;;20.00;8.90;;;;;;;4.15;100.00;100109.88;223475;1265;139393;-90
2023/11/09 03:08:17;;;;;;;;;;;;;;;;;;;;;
2023/11/09 03:14:19;;;;;;;20.90;10.40;;;;;;;4.10;100.00;100106.76;223901;1265;139493;-91
2023/11/09 03:20:23;;;;;;;19.10;10.00;;;;;;;4.07;100.00;100101.86;223472;1265;140531;-91
2023/11/09 03:26:21;;;;;;;19.30;8.70;;;;;;;4.05;100.00;100103.16;223886;1264;139112;-90
2023/11/09 03:32:23;;;;;;;17.40;8.80;;;;;;;4.03;100.00;100099.29;223476;1266;139316;-90
2023/11/09 03:44:24;;;;;;;17.40;9.60;;;;;;;4.01;100.00;100087.89;224015;1264;139357;-89
2023/11/09 03:50:25;;;;;;;15.70;8.40;;;;;;;4.01;100.00;100076.73;223344;1265;139649;-90
2023/11/09 03:56:21;;;;;;;16.00;9.10;;;;;;;4.00;100.00;100074.93;223977;1266;137360;-90
2023/11/09 04:08:23;;;;;;;15.10;8.30;;;;;;;3.99;100.00;100072.70;223496;1264;139878;-90
2023/11/09 04:14:27;;;;;;;16.30;8.80;;;;;;;3.98;100.00;100073.77;223867;1264;138601;-90
2023/11/09 04:20:28;;;;;;;22.60;9.40;;;;;;;3.98;100.00;100065.77;223784;1265;139313;-91
2023/11/09 04:26:32;;;;;;;17.80;9.30;;;;;;;3.99;100.00;100056.30;224191;1265;138130;-89
2023/11/09 04:32:32;;;;;;;21.30;10.00;;;;;;;3.99;100.00;100044.17;223489;1265;139496;-89
2023/11/09 04:38:37;;;;;;;23.40;10.80;;;;;;;4.00;100.00;100028.02;223454;1265;140442;-92
2023/11/09 04:44:36;;;;;;;22.00;10.00;;;;;;;3.99;100.00;100024.56;224013;1264;138697;-90
2023/11/09 04:50:38;;;;;;;18.90;9.60;;;;;;;3.99;100.00;100022.02;223448;1265;140437;-89
2023/11/09 05:08:36;;;;;;;21.10;11.30;;;;;;;3.98;100.00;99998.95;223376;1265;139992;-90
2023/11/09 05:14:37;;;;;;;22.50;11.60;;;;;;;3.98;100.00;99996.83;223913;1265;138796;-93
2023/11/09 05:20:17;;;;;;;21.50;12.50;;;;;;;3.98;100.00;99989.92;223454;1268;140153;-89
2023/11/09 05:26:21;;;;;;;24.30;12.90;;;;;;;3.99;100.00;99983.04;224039;1265;138597;-88
2023/11/09 05:32:06;;;;;;;22.10;13.00;;;;;;;4.02;100.00;99981.17;223494;1266;140078;-88
2023/11/09 05:38:08;;;;;;;25.60;14.10;;;;;;;4.04;100.00;99980.39;223391;1268;139689;-90
2023/11/09 05:44:08;;;;;;;25.80;14.80;;;;;;;4.07;100.00;99972.99;223963;1265;138431;-91
2023/11/09 05:50:10;;;;;;;27.10;13.40;;;;;;;4.09;100.00;99974.00;223495;1268;139857;-91
2023/11/09 05:56:11;;;;;;;22.20;12.90;;;;;;;4.12;100.00;99972.30;223906;1265;138722;-87
2023/11/09 06:02:12;;;;;;;27.00;14.00;;;;;;;4.13;100.00;99960.96;223713;1266;139738;-89
2023/11/09 06:08:35;;;;;;;27.70;13.80;;;;;;;4.15;100.00;99965.21;223982;1268;139843;-89
2023/11/09 06:14:09;;;;;;;;;;;;;;;;;;;;;
2023/11/09 06:20:11;;;;;;;;;;;;;;;;;;;;;
2023/11/09 06:26:24;;;;;;;25.20;13.10;;;;;;;4.18;100.00;99969.80;223913;1266;138677;-90
2023/11/09 06:32:22;;;;;;;30.50;12.80;;;;;;;4.18;100.00;99965.31;223792;1266;139851;-95
2023/11/09 06:38:22;;;;;;;23.30;13.80;;;;;;;4.19;100.00;99961.07;223767;1268;139771;-93
2023/11/09 06:50:25;;;;;;;31.20;14.40;;;;;;;4.30;100.00;99953.05;223681;1265;139407;-95
2023/11/09 06:56:27;;;;;;;28.10;14.30;;;;;;;4.39;100.00;99958.61;224324;1265;137294;-94
2023/11/09 07:02:27;;;;;;;29.80;13.90;;;;;;;4.52;100.00;99959.02;223601;1266;140620;-94
2023/11/09 07:08:29;;;;;;;28.10;13.60;;;;;;;4.63;100.00;99962.99;223838;1266;139577;-91
2023/11/09 07:14:22;;;;;;;;;;;;;;;;;;;;;
2023/11/09 07:20:23;;;;;;;;;;;;;;;;;;;;;
2023/11/09 07:26:24;;;;;;;26.20;12.80;;;;;;;4.97;100.00;99948.02;223621;1264;138673;-89
2023/11/09 07:38:27;;;;;;;20.20;10.40;;;;;;;5.23;100.00;99938.08;223465;1265;139552;-91
2023/11/09 07:44:35;;;;;;;20.20;9.50;;;;;;;5.38;100.00;99926.33;224149;1265;138458;-92
2023/11/09 07:50:38;;;;;;;22.40;10.60;;;;;;;5.54;100.00;99922.50;223599;1265;139970;-88
2023/11/09 07:56:38;;;;;;;25.70;9.80;;;;;;;5.70;100.00;99920.59;224538;1266;138781;-87
2023/11/09 08:02:38;;;;;;;17.10;8.60;;;;;;;5.86;100.00;99915.70;223569;1266;139508;-87
2023/11/09 08:08:41;;;;;;;19.40;8.60;;;;;;;6.08;100.00;99906.86;223506;1265;140226;-90
2023/11/09 08:14:42;;;;;;;16.30;7.70;;;;;;;6.35;100.00;99908.42;223948;1266;138378;-93
2023/11/09 08:20:42;;;;;;;15.10;7.50;;;;;;;6.61;100.00;99905.64;223504;1266;139968;-93
2023/11/09 08:26:43;;;;;;;15.60;6.90;;;;;;;6.79;100.00;99899.86;224215;1266;138229;-94
2023/11/09 08:32:46;;;;;;;17.00;8.00;;;;;;;6.94;100.00;99897.31;223412;1265;140522;-92
2023/11/09 08:38:18;;;;;;;14.50;8.10;;;;;;;7.09;100.00;99897.35;223343;1266;140813;-86
2023/11/09 08:43:31;;;;;;;;;;;;;;;;;;;;;
2023/11/09 08:49:33;;;;;;;15.40;7.30;;;;;;;7.40;100.00;99887.89;223415;1265;140052;-88
2023/11/09 08:55:34;;;;;;;13.70;6.40;;;;;;;7.57;100.00;99884.23;224106;1266;137130;-88
2023/11/09 09:01:57;;;;;;;15.20;7.00;;;;;;;7.73;100.00;99873.41;223540;1267;139195;-91
2023/11/09 09:07:40;;;;;;;11.60;5.90;;;;;;;7.86;100.00;99871.39;223990;1267;138230;-90
2023/11/09 09:19:35;;;;;;;16.80;6.30;;;;;;;8.13;100.00;99863.11;223549;1266;139739;-93
2023/11/09 09:37:32;;;;;;;;;;;;;;;;;;;;;
2023/11/09 09:43:37;;;;;;;11.40;5.00;;;;;;;8.65;100.00;99860.65;224764;1268;137124;-87
2023/11/09 09:49:42;;;;;;;11.50;4.70;;;;;;;8.77;100.00;99857.16;223600;1268;139490;-89
2023/11/09 10:01:49;;;;;;;13.80;5.30;;;;;;;8.94;100.00;99835.90;223501;1266;139379;-93
2023/11/09 10:07:50;;;;;;;12.30;5.60;;;;;;;9.02;100.00;99832.60;224216;1265;138900;-93
2023/11/09 10:13:52;;;;;;;13.40;5.00;;;;;;;9.11;100.00;99830.39;224000;1268;138842;-87
2023/11/09 10:19:45;;;;;;;;;;;;;;;;;;;;;
2023/11/09 10:31:49;;;;;;;12.40;5.10;;;;;;;9.44;100.00;99803.77;223446;1268;139849;-90
2023/11/09 10:37:51;;;;;;;13.60;5.30;;;;;;;9.52;100.00;99799.20;223909;1268;138299;-88
2023/11/09 10:43:51;;;;;;;9.80;4.90;;;;;;;9.60;100.00;99789.02;223942;1267;138326;-87
2023/11/09 10:49:53;;;;;;;15.00;4.60;;;;;;;9.67;100.00;99785.20;223499;1268;139579;-85
2023/11/09 10:55:54;;;;;;;16.00;6.00;;;;;;;9.72;100.00;99774.02;224005;1266;138678;-85
2023/11/09 11:01:59;;;;;;;17.10;5.90;;;;;;;9.80;100.00;99767.05;223468;1266;140163;-86
2023/11/09 11:07:59;;;;;;;17.80;6.50;;;;;;;9.86;100.00;99759.85;223966;1268;138293;-85
2023/11/09 11:13:54;;;;;;;15.20;6.50;;;;;;;9.97;100.00;99750.77;224016;1266;138438;-87
2023/11/09 11:20:09;;;;;;;;;;;;;;;;;;;;;
2023/11/09 11:26:15;;;;;;;;;;;;;;;;;;;;;
2023/11/09 11:32:18;;;;;;;19.00;6.90;;;;;;;10.38;100.00;99749.92;223501;1267;139867;-86
2023/11/09 11:38:29;;;;;;;11.90;4.30;;;;;;;10.52;100.00;99747.41;223787;1266;140102;-86
2023/11/09 11:44:35;;;;;;;10.10;4.40;;;;;;;10.66;100.00;99750.41;224057;1266;139679;-90
2023/11/09 11:50:37;;;;;;;12.30;3.70;;;;;;;10.80;100.00;99743.23;223573;1265;140936;-89
2023/11/09 11:56:30;;;;;;;;;;;;;;;;;;;;;
2023/11/09 12:02:39;;;;;;;10.80;3.70;;;;;;;11.06;98.89;99713.55;223920;1264;107308;-85
2023/11/09 12:08:40;;;;;;;9.30;3.60;;;;;;;11.15;98.50;99704.71;223439;1268;234813;-85
2023/11/09 12:14:45;;;;;;;11.60;4.10;;;;;;;11.23;97.92;99686.42;223909;1267;138338;-85
2023/11/09 12:20:43;;;;;;;12.10;4.60;;;;;;;11.29;97.35;99686.97;223394;1267;139970;-85
2023/11/09 12:26:49;;;;;;;10.80;3.80;;;;;;;11.36;96.18;99683.40;223957;1267;139169;-84
2023/11/09 12:32:43;;;;;;;;;;;;;;;;;;;;;
2023/11/09 12:45:22;;;;;;;11.80;5.00;;;;;;;11.46;94.52;99671.30;224038;1267;95922;-84
2023/11/09 12:51:06;;;;;;;8.70;3.40;;;;;;;11.50;92.23;99671.68;223210;1267;140411;-84
2023/11/09 12:57:07;;;;;;;7.40;2.90;;;;;;;11.56;90.42;99667.41;223893;1265;139652;-85
2023/11/09 13:03:08;;;;;;;10.60;3.50;;;;;;;11.61;89.55;99663.08;223485;1266;139843;-84
2023/11/09 13:09:38;;;;;;;13.20;3.10;;;;;;;11.65;87.80;99660.84;223370;1266;139766;-85
2023/11/09 13:21:18;;;;;;;10.30;3.20;;;;;;;11.63;86.07;99659.83;223221;1266;140324;-84
2023/11/09 13:27:39;;;;;;;12.30;4.40;;;;;;;11.60;86.24;99656.38;223929;1267;140214;-83
2023/11/09 13:33:29;;;;;;;10.30;4.30;;;;;;;11.58;87.22;99657.24;223733;1264;139721;-83
2023/11/09 13:45:47;;;;;;;9.10;3.80;;;;;;;11.47;87.35;99654.62;223357;1270;96041;-84
2023/11/09 13:51:14;;;;;;;10.10;4.00;;;;;;;11.44;86.57;99652.27;223244;1265;139430;-84
2023/11/09 14:03:17;;;;;;;12.00;4.70;;;;;;;11.35;87.80;99639.88;223892;1265;138696;-84
2023/11/09 14:09:09;;;;;;;14.80;4.30;;;;;;;11.29;88.70;99636.59;223311;1265;140421;-82
2023/11/09 14:15:16;;;;;;;9.40;3.80;;;;;;;11.23;89.51;99629.61;223835;1265;138630;-83
2023/11/09 14:21:02;;;;;;;;;;;;;;;;;;;;;
2023/11/09 14:27:04;;;;;;;10.20;4.10;;;;;;;11.11;89.96;99615.42;223927;1265;139003;-84
2023/11/09 14:32:53;;;;;;;13.90;4.80;;;;;;;11.04;90.14;99614.91;223483;1265;139235;-83
2023/11/09 14:38:45;;;;;;;;;;;;;;;;;;;;;
2023/11/09 14:44:53;;;;;;;16.40;6.00;;;;;;;10.93;91.07;99607.08;223918;1265;138721;-84
2023/11/09 14:50:48;;;;;;;13.40;5.50;;;;;;;10.86;91.16;99600.34;223258;1264;139924;-83
2023/11/09 14:56:49;;;;;;;13.70;5.30;;;;;;;10.76;91.45;99596.98;223890;1265;138720;-83
2023/11/09 15:02:42;;;;;;;14.70;6.70;;;;;;;10.67;92.07;99593.40;223315;1265;139632;-83
2023/11/09 15:08:42;;;;;;;15.80;5.00;;;;;;;10.57;91.79;99593.04;223414;1265;139990;-83
2023/11/09 15:14:41;;;;;;;;;;;;;;;;;;;;;
2023/11/09 15:20:44;;;;;;;12.00;5.30;;;;;;;10.39;92.12;99590.48;223337;1266;139740;-84
2023/11/09 15:26:39;;;;;;;17.70;6.20;;;;;;;10.33;92.75;99589.30;224024;1265;138682;-83
2023/11/09 15:32:38;;;;;;;13.20;6.60;;;;;;;10.29;92.87;99587.90;223255;1265;139663;-82
2023/11/09 15:38:40;;;;;;;13.60;5.50;;;;;;;10.21;93.01;99575.80;223347;1266;139956;-83
2023/11/09 15:44:41;;;;;;;17.20;6.80;;;;;;;10.13;93.63;99575.34;223863;1265;138368;-83
2023/11/09 15:50:42;;;;;;;14.90;5.50;;;;;;;10.05;93.86;99572.84;223418;1267;139607;-82
2023/11/09 15:56:43;;;;;;;12.70;5.60;;;;;;;9.95;93.97;99575.33;223888;1265;138897;-82
2023/11/09 16:02:47;;;;;;;13.60;7.40;;;;;;;9.87;94.23;99575.23;223322;1265;140122;-83
2023/11/09 16:08:45;;;;;;;15.10;5.80;;;;;;;9.80;94.36;99569.11;223379;1265;139685;-83
2023/11/09 16:14:38;;;;;;;;;;;;;;;;;;;;;
2023/11/09 16:21:02;;;;;;;14.20;7.30;;;;;;;9.64;94.36;99559.36;223474;1265;139208;-83
2023/11/09 16:26:47;;;;;;;20.10;6.60;;;;;;;9.58;94.38;99539.91;223858;1265;138081;-85
2023/11/09 16:32:46;;;;;;;14.50;6.20;;;;;;;9.52;94.57;99535.34;223242;1264;139871;-85
2023/11/09 16:38:47;;;;;;;13.80;6.90;;;;;;;9.46;94.35;99537.55;223283;1265;139550;-83
2023/11/09 16:44:41;;;;;;;;;;;;;;;;;;;;;
2023/11/09 16:50:43;;;;;;;15.40;7.00;;;;;;;9.38;94.79;99531.18;223356;1265;139980;-85
2023/11/09 16:56:43;;;;;;;17.30;8.70;;;;;;;9.35;94.20;99533.98;223932;1265;138128;-84
2023/11/09 17:02:44;;;;;;;16.20;8.70;;;;;;;9.37;93.77;99538.02;223363;1268;139537;-85
2023/11/09 17:08:46;;;;;;;18.90;9.70;;;;;;;9.38;93.92;99539.41;223357;1265;139164;-85
2023/11/09 17:14:31;;;;;;;;;;;;;;;;;;;;;
2023/11/09 17:20:57;;;;;;;20.70;10.50;;;;;;;9.41;93.21;99540.67;223284;1265;140446;-85
2023/11/09 17:26:34;;;;;;;19.70;9.90;;;;;;;9.42;93.04;99541.46;223736;1265;139333;-83
2023/11/09 17:32:35;;;;;;;21.80;10.80;;;;;;;9.41;93.01;99543.19;223376;1265;139579;-86
2023/11/09 17:38:36;;;;;;;22.60;11.40;;;;;;;9.41;92.71;99539.73;223232;1265;140356;-84
2023/11/09 17:44:30;;;;;;;;;;;;;;;;;;;;;
2023/11/09 17:56:33;;;;;;;26.00;12.00;;;;;;;9.37;92.61;99532.43;223926;1265;138427;-84
2023/11/09 18:02:34;;;;;;;25.50;12.10;;;;;;;9.32;92.86;99528.81;223403;1265;139697;-84
2023/11/09 18:08:35;;;;;;;25.40;13.40;;;;;;;9.29;92.86;99527.94;223512;1267;139423;-85
2023/11/09 18:20:37;;;;;;;24.90;11.40;;;;;;;9.27;92.29;99515.55;223364;1265;139791;-85
2023/11/09 18:32:40;;;;;;;23.10;11.20;;;;;;;9.31;91.03;99498.21;223244;1265;139686;-84
2023/11/09 18:38:35;;;;;;;23.30;9.70;;;;;;;9.36;91.00;99499.71;223342;1264;140214;-83
2023/11/09 18:44:35;;;;;;;23.60;9.80;;;;;;;9.42;90.51;99499.16;223918;1265;138928;-82
2023/11/09 18:50:36;;;;;;;28.90;13.50;;;;;;;9.46;89.98;99500.52;223270;1265;139563;-82
2023/11/09 18:56:36;;;;;;;24.00;11.70;;;;;;;9.50;90.42;99490.16;223900;1265;139201;-83
2023/11/09 19:02:37;;;;;;;24.10;11.90;;;;;;;9.53;89.80;99490.77;223535;1264;139558;-82
2023/11/09 19:08:38;;;;;;;25.10;12.80;;;;;;;9.55;89.55;99481.84;223418;1265;139545;-83
2023/11/09 19:14:39;;;;;;;23.70;11.00;;;;;;;9.55;89.34;99483.87;223819;1265;138936;-83
2023/11/09 19:20:23;;;;;;;23.40;10.30;;;;;;;9.54;89.62;99489.13;223280;1264;139569;-85
2023/11/09 19:26:15;;;;;;;25.90;10.70;;;;;;;9.52;89.71;99493.77;223829;1265;138840;-82
2023/11/09 19:32:09;;;;;;;23.10;10.60;;;;;;;9.49;89.28;99495.96;223292;1264;139924;-84
2023/11/09 19:38:10;;;;;;;23.40;9.70;;;;;;;9.46;89.08;99500.36;223366;1265;139605;-84
2023/11/09 19:44:09;;;;;;;19.90;8.30;;;;;;;9.43;88.96;99493.60;223946;1265;138733;-82
2023/11/09 19:50:02;;;;;;;21.00;10.00;;;;;;;9.42;88.93;99489.11;223402;1265;140861;-83
2023/11/09 19:56:03;;;;;;;18.50;9.10;;;;;;;9.42;88.68;99484.58;223925;1265;139278;-82
2023/11/09 20:02:05;;;;;;;18.80;8.70;;;;;;;9.42;88.87;99467.39;223303;1265;139385;-83
2023/11/09 20:08:05;;;;;;;21.90;8.80;;;;;;;9.42;88.87;99462.13;223501;1265;139605;-83
2023/11/09 20:14:01;;;;;;;21.20;8.30;;;;;;;9.42;89.06;99463.55;223929;1264;138687;-82
2023/11/09 20:20:02;;;;;;;21.00;9.10;;;;;;;9.42;89.59;99466.37;223155;1265;139781;-82
2023/11/09 20:26:02;;;;;;;19.30;9.80;;;;;;;9.41;90.21;99466.84;223915;1265;138704;-81
2023/11/09 20:32:04;;;;;;;18.30;9.30;;;;;;;9.37;90.08;99468.64;223091;1265;139885;-81
2023/11/09 20:38:07;;;;;;;20.00;8.70;;;;;;;9.37;89.79;99466.61;223489;1265;140345;-81
2023/11/09 20:44:07;;;;;;;19.70;9.10;;;;;;;9.39;89.45;99465.98;223947;1265;138618;-83
2023/11/09 20:50:12;;;;;;;16.10;8.30;;;;;;;9.40;89.29;99473.29;223489;1265;139727;-83
2023/11/09 20:56:08;;;;;;;19.30;9.40;;;;;;;9.43;89.10;99470.30;223946;1265;138578;-83
2023/11/09 21:02:11;;;;;;;18.00;9.40;;;;;;;9.46;88.22;99473.29;223266;1265;139572;-84
2023/11/09 21:08:11;;;;;;;17.50;8.10;;;;;;;9.49;88.53;99473.75;223401;1265;140861;-84
2023/11/09 21:14:13;;;;;;;19.80;8.40;;;;;;;9.50;88.72;99467.48;223966;1265;138872;-83
2023/11/09 21:20:11;;;;;;;;;;;;;;;;;;;;;
2023/11/09 21:26:12;;;;;;;;;;;;;;;;;;;;;
2023/11/09 21:32:13;;;;;;;;;;;;;;;;;;;;;
2023/11/09 21:38:06;;;;;;;16.50;8.10;;;;;;;9.55;88.31;99460.64;223386;1265;139895;-83
2023/11/09 21:43:46;;;;;;;18.40;8.20;;;;;;;9.57;87.91;99455.54;224177;1264;138623;-84
2023/11/09 21:49:49;;;;;;;20.40;9.60;;;;;;;9.58;87.89;99453.11;223360;1265;140199;-82
2023/11/09 21:55:50;;;;;;;19.80;8.80;;;;;;;9.60;87.65;99446.84;223970;1264;138125;-83
2023/11/09 22:07:35;;;;;;;18.90;8.90;;;;;;;9.63;88.24;99436.15;223850;1265;138830;-84
2023/11/09 22:13:39;;;;;;;17.90;8.90;;;;;;;9.64;88.22;99431.52;224015;1265;138676;-83
2023/11/09 22:25:39;;;;;;;14.60;8.10;;;;;;;9.67;88.37;99422.18;223874;1264;138430;-84
2023/11/09 22:31:40;;;;;;;14.60;8.30;;;;;;;9.69;88.38;99432.30;223303;1265;139764;-82
2023/11/09 22:37:41;;;;;;;15.70;7.80;;;;;;;9.72;88.35;99430.48;223994;1266;138748;-83
2023/11/09 22:43:43;;;;;;;15.70;8.60;;;;;;;9.75;88.24;99434.24;223884;1266;138837;-81
2023/11/09 22:49:44;;;;;;;15.40;7.70;;;;;;;9.79;88.12;99439.50;223305;1265;140517;-81
2023/11/09 22:55:44;;;;;;;17.40;8.10;;;;;;;9.80;88.61;99433.61;223867;1265;139010;-82
2023/11/09 23:01:36;;;;;;;;;;;;;;;;;;;;;
2023/11/09 23:07:45;;;;;;;13.40;6.80;;;;;;;9.82;88.90;99436.20;223977;1265;139130;-83
2023/11/09 23:13:47;;;;;;;14.40;7.50;;;;;;;9.81;89.28;99439.89;223849;1266;138674;-82
2023/11/09 23:19:48;;;;;;;13.20;7.20;;;;;;;9.82;89.44;99434.40;223368;1266;139757;-84
2023/11/09 23:25:49;;;;;;;13.10;7.10;;;;;;;9.81;90.03;99436.11;223918;1266;138544;-84
2023/11/09 23:31:50;;;;;;;14.90;7.20;;;;;;;9.78;90.40;99429.38;223380;1265;140222;-82
2023/11/09 23:37:51;;;;;;;14.10;6.60;;;;;;;9.77;90.81;99420.59;224005;1265;138119;-81
2023/11/09 23:43:53;;;;;;;13.40;8.00;;;;;;;9.75;91.03;99417.39;223742;1265;389324;-83
2023/11/09 23:49:42;;;;;;;;;;;;;;;;;;;;;
2023/11/09 23:55:44;;;;;;;12.30;7.20;;;;;;;9.71;92.30;99410.62;223994;1268;138310;-82
